Warner, New Hampshire
Current Conditions -  °F | °C
As of 3:51 PM on Friday 24 Oct 2014 (Local Time) from KCON Reporting Station
Overcast Overcast  
Wind Chill:   Ceiling: 2100
Heat Index:   Visibility: 10mi
Dew Point:   Wind: 9mph
Humidity: 77%   Direction: 300°WNW
Pressure: 29.7"   Gusts: NA
Location:  43.28°N, 71.82°W
Report Text: KCON 241951Z AUTO 30008KT 10SM BKN021 OVC033 09/06 A2970 RMK AO2 SLP057 T00940056
Loading
Personal Weather Stations






























Interactive Weather Map
Tropical Storm Tracking
New forecast layout! Learn more

10-Day Weather Forecast

Advertisements
Track Severe Weather on mobile